Terminal Aerodrome Forecast
Issued by NWS

Home | Current Version | Previous Version | Text Only | Print | Product List | Glossary On
Versions: 1 2 3 4 5 6 7 8 9 10 11 12 13
000
FTUS44 KSJT 281700
TAFSOA
TAF
KSOA 281722Z 2818/2918 19012G18KT P6SM SKC
     FM290000 19005KT P6SM SKC
     FM291300 18005KT P6SM BKN015=

USA.gov is the U.S. government's official web portal to all federal, state and local government web resources and services.